Time;durP1;ratioP1;P1;durP2;ratioP2;P2;SDS_P1;SDS_P2;PMS_P1;PMS_P2;Temp;Humidity;BMP_temperature;BMP_pressure;BME280_temperature;BME280_humidity;BME280_pressure;Samples;Min_cycle;Max_cycle;Signal;HPM_P1;HPM_P2
2021/01/26 00:00:46;;;;;;;1.70;0.40;;;3.40;90.70;;;;;;5077906;28;20058;-76
2021/01/26 00:03:12;;;;;;;1.55;0.60;;;3.20;90.70;;;;;;5105631;28;20040;-77
2021/01/26 00:05:38;;;;;;;0.82;0.63;;;3.30;90.70;;;;;;5078393;28;20105;-77
2021/01/26 00:08:04;;;;;;;2.38;0.50;;;3.30;90.70;;;;;;5072366;28;20576;-75
2021/01/26 00:10:31;;;;;;;1.23;0.70;;;3.40;90.80;;;;;;5098062;28;20063;-77
2021/01/26 00:12:57;;;;;;;2.30;0.63;;;3.30;90.80;;;;;;5059572;28;20446;-75
2021/01/26 00:15:23;;;;;;;2.83;0.70;;;3.30;90.80;;;;;;5096467;28;20122;-78
2021/01/26 00:17:48;;;;;;;1.70;0.40;;;3.30;90.80;;;;;;5059651;28;20040;-77
2021/01/26 00:20:15;;;;;;;2.35;0.50;;;3.40;90.80;;;;;;5072970;28;20052;-77
2021/01/26 00:22:42;;;;;;;1.27;0.45;;;3.50;90.80;;;;;;5103831;28;20062;-77
2021/01/26 00:25:10;;;;;;;1.75;0.63;;;3.40;90.80;;;;;;5105979;28;20068;-75
2021/01/26 00:27:36;;;;;;;1.40;0.50;;;3.40;90.70;;;;;;5097913;28;20060;-75
2021/01/26 00:30:07;;;;;;;1.77;0.73;;;3.40;90.70;;;;;;5095964;28;20032;-75
2021/01/26 00:32:32;;;;;;;1.67;0.63;;;3.40;90.80;;;;;;5099240;28;20040;-75
2021/01/26 00:34:58;;;;;;;2.65;0.65;;;3.50;90.80;;;;;;5061988;28;20043;-75
2021/01/26 00:37:24;;;;;;;2.40;0.88;;;3.40;90.80;;;;;;5100319;28;20074;-75
2021/01/26 00:39:50;;;;;;;3.53;1.00;;;3.40;90.80;;;;;;5098693;28;20044;-75
2021/01/26 00:42:15;;;;;;;1.73;0.85;;;3.50;90.80;;;;;;5097984;28;20067;-75
2021/01/26 00:44:41;;;;;;;3.55;1.05;;;3.50;90.70;;;;;;5100810;28;20040;-75
2021/01/26 00:47:07;;;;;;;2.85;1.05;;;3.60;90.70;;;;;;5097884;28;20036;-75
2021/01/26 00:49:32;;;;;;;2.65;1.02;;;3.50;90.70;;;;;;5098456;28;20130;-74
2021/01/26 00:51:58;;;;;;;3.00;0.90;;;3.50;90.70;;;;;;5099486;28;20036;-75
2021/01/26 00:54:24;;;;;;;3.47;1.20;;;3.50;90.70;;;;;;5095323;28;20051;-74
2021/01/26 00:56:49;;;;;;;2.67;0.90;;;3.50;90.80;;;;;;5098270;28;20043;-74
2021/01/26 00:59:15;;;;;;;0.98;0.52;;;3.40;90.80;;;;;;5097796;28;20040;-75
2021/01/26 01:01:41;;;;;;;1.70;0.70;;;3.50;90.80;;;;;;5098978;28;20078;-75
2021/01/26 01:04:06;;;;;;;2.00;0.80;;;3.40;90.80;;;;;;5062499;28;20044;-74
2021/01/26 01:06:32;;;;;;;2.10;0.80;;;3.40;90.80;;;;;;5076663;28;20047;-74
2021/01/26 01:08:58;;;;;;;2.65;0.77;;;3.40;90.90;;;;;;5097613;28;20028;-74
2021/01/26 01:11:23;;;;;;;1.75;0.80;;;3.30;90.80;;;;;;5095962;28;20036;-74
2021/01/26 01:13:49;;;;;;;2.53;0.73;;;3.30;90.90;;;;;;5096692;28;20054;-74
2021/01/26 01:16:15;;;;;;;1.67;0.85;;;3.40;91.00;;;;;;5099066;28;20193;-74
2021/01/26 01:18:41;;;;;;;3.22;1.10;;;3.40;90.90;;;;;;5098062;28;20047;-74
2021/01/26 01:21:06;;;;;;;1.48;0.82;;;3.40;90.90;;;;;;5098670;28;20127;-75
2021/01/26 01:23:32;;;;;;;2.47;1.00;;;3.30;90.90;;;;;;5057710;28;20032;-75
2021/01/26 01:26:00;;;;;;;3.80;1.27;;;3.50;91.20;;;;;;5092971;28;20491;-75
2021/01/26 01:28:26;;;;;;;4.38;1.30;;;3.50;90.90;;;;;;5092282;28;20403;-75
2021/01/26 01:30:55;;;;;;;7.10;1.50;;;3.40;90.90;;;;;;5092393;28;20040;-75
2021/01/26 01:33:22;;;;;;;4.90;1.88;;;3.50;90.90;;;;;;5090900;28;20078;-75
2021/01/26 01:35:48;;;;;;;2.92;1.35;;;3.50;90.90;;;;;;5090223;28;20048;-75
2021/01/26 01:38:14;;;;;;;2.67;1.20;;;3.60;90.80;;;;;;5046342;28;20051;-75
2021/01/26 01:40:39;;;;;;;5.47;1.30;;;3.60;90.80;;;;;;5092652;28;20044;-74
2021/01/26 01:43:05;;;;;;;3.78;1.17;;;3.60;90.90;;;;;;5092655;28;20044;-75
2021/01/26 01:45:31;;;;;;;3.13;0.95;;;3.60;90.90;;;;;;5092274;28;20197;-75
2021/01/26 01:48:11;;;;;;;2.10;1.00;;;3.60;90.90;;;;;;5057302;28;20044;-75
2021/01/26 01:50:42;;;;;;;2.15;0.85;;;3.60;90.90;;;;;;5092242;28;20040;-75
2021/01/26 01:53:18;;;;;;;1.83;0.93;;;3.60;90.90;;;;;;5092091;28;20046;-75
2021/01/26 01:55:53;;;;;;;3.50;0.90;;;3.60;90.90;;;;;;5091888;28;20044;-74
2021/01/26 01:58:25;;;;;;;1.60;0.77;;;3.60;90.90;;;;;;5058472;28;20048;-74
2021/01/26 02:00:56;;;;;;;3.35;0.95;;;3.60;90.90;;;;;;5092018;28;20136;-75
2021/01/26 02:03:26;;;;;;;1.17;0.52;;;3.60;90.90;;;;;;5069962;28;20036;-75
2021/01/26 02:05:55;;;;;;;1.48;0.70;;;3.60;90.90;;;;;;5091982;28;20043;-75
2021/01/26 02:08:39;;;;;;;2.42;0.80;;;3.50;90.90;;;;;;5092003;28;20060;-75
2021/01/26 02:11:05;;;;;;;4.60;0.88;;;3.50;90.90;;;;;;5062343;28;20066;-75
2021/01/26 02:13:31;;;;;;;3.25;0.93;;;3.50;91.00;;;;;;5095812;28;20036;-75
2021/01/26 02:16:01;;;;;;;4.25;0.90;;;3.40;91.00;;;;;;5095459;28;20032;-74
2021/01/26 02:18:50;;;;;;;3.55;0.90;;;3.60;91.00;;;;;;5060837;28;20036;-75
2021/01/26 02:21:44;;;;;;;4.38;1.23;;;3.50;91.00;;;;;;5095384;28;20048;-74
2021/01/26 02:24:35;;;;;;;2.42;0.90;;;3.60;91.00;;;;;;5093404;28;20394;-74
2021/01/26 02:27:26;;;;;;;3.45;0.85;;;3.60;91.00;;;;;;5095265;28;20076;-75
2021/01/26 02:30:16;;;;;;;6.32;1.33;;;3.50;91.00;;;;;;5094741;28;20085;-75
2021/01/26 02:33:16;;;;;;;3.45;1.00;;;3.50;91.00;;;;;;5095144;28;20086;-74
2021/01/26 02:36:18;;;;;;;3.45;0.98;;;3.50;91.00;;;;;;5067477;28;20093;-76
2021/01/26 02:39:16;;;;;;;3.78;0.93;;;3.40;91.10;;;;;;5094991;28;20089;-74
2021/01/26 02:41:57;;;;;;;1.88;0.68;;;3.40;91.10;;;;;;5093182;28;20131;-75
2021/01/26 02:44:35;;;;;;;1.05;0.55;;;3.40;91.10;;;;;;5095705;28;20491;-75
2021/01/26 02:47:23;;;;;;;1.30;0.52;;;3.40;91.10;;;;;;5095178;28;20032;-74
2021/01/26 02:49:56;;;;;;;2.70;0.73;;;3.40;91.10;;;;;;5094295;28;20068;-75
2021/01/26 02:52:39;;;;;;;3.10;0.70;;;3.40;91.20;;;;;;5060150;28;20131;-75
2021/01/26 02:55:13;;;;;;;3.92;0.60;;;3.50;91.10;;;;;;5074057;28;20090;-75
2021/01/26 02:57:54;;;;;;;2.33;0.70;;;3.50;91.10;;;;;;5095085;28;20044;-75
2021/01/26 03:00:24;;;;;;;1.73;0.73;;;3.40;91.10;;;;;;5093132;28;20040;-75
2021/01/26 03:03:12;;;;;;;3.13;0.63;;;3.40;91.10;;;;;;5095050;28;20447;-75
2021/01/26 03:05:45;;;;;;;3.40;0.82;;;3.40;91.20;;;;;;5060032;28;20491;-75
2021/01/26 03:08:18;;;;;;;1.40;0.68;;;3.40;91.20;;;;;;5094625;28;20499;-74
2021/01/26 03:10:52;;;;;;;2.30;0.50;;;3.30;91.10;;;;;;5062637;28;20044;-74
2021/01/26 03:13:22;;;;;;;1.02;0.47;;;3.40;91.20;;;;;;5094768;28;20109;-74
2021/01/26 03:15:56;;;;;;;2.65;0.60;;;3.40;91.30;;;;;;5094663;28;20040;-75
2021/01/26 03:18:30;;;;;;;4.40;0.82;;;3.40;91.20;;;;;;5094508;28;20119;-74
2021/01/26 03:21:00;;;;;;;2.85;0.43;;;3.40;91.20;;;;;;5094464;28;20048;-75
2021/01/26 03:23:35;;;;;;;3.03;0.57;;;3.40;91.20;;;;;;5093184;28;20064;-74
2021/01/26 03:26:03;;;;;;;1.38;0.40;;;3.40;91.20;;;;;;5094899;28;20039;-74
2021/01/26 03:28:30;;;;;;;3.08;0.70;;;3.50;91.20;;;;;;5094525;28;20093;-74
2021/01/26 03:30:59;;;;;;;1.55;0.43;;;3.50;91.20;;;;;;5094891;28;20048;-75
2021/01/26 03:33:31;;;;;;;2.45;0.50;;;3.50;91.10;;;;;;5073429;28;20557;-75
2021/01/26 03:35:57;;;;;;;3.08;0.60;;;3.50;91.10;;;;;;5094139;28;20181;-74
2021/01/26 03:38:26;;;;;;;1.58;0.43;;;3.50;91.10;;;;;;5094701;28;20488;-74
2021/01/26 03:40:53;;;;;;;1.45;0.47;;;3.50;91.10;;;;;;5093932;28;20530;-75
2021/01/26 03:43:21;;;;;;;0.73;0.20;;;3.40;91.00;;;;;;5094635;28;20127;-75
2021/01/26 03:45:58;;;;;;;0.98;0.40;;;3.50;91.10;;;;;;5057268;28;20040;-75
2021/01/26 03:48:51;;;;;;;0.55;0.20;;;3.40;91.10;;;;;;5093024;28;20437;-75
2021/01/26 03:51:43;;;;;;;3.28;0.40;;;3.40;91.20;;;;;;5094382;28;20028;-75
2021/01/26 03:54:31;;;;;;;1.52;0.40;;;3.30;91.20;;;;;;5094575;28;20101;-75
2021/01/26 03:57:18;;;;;;;3.13;0.52;;;3.30;91.20;;;;;;5094551;28;20123;-74
2021/01/26 04:00:01;;;;;;;1.23;0.32;;;3.30;91.20;;;;;;5063296;28;20392;-75
2021/01/26 04:02:51;;;;;;;1.25;0.30;;;3.30;91.20;;;;;;5093748;28;20089;-75
2021/01/26 04:05:29;;;;;;;1.52;0.30;;;3.30;91.20;;;;;;5093852;28;20036;-75
2021/01/26 04:08:07;;;;;;;1.40;0.40;;;3.40;91.20;;;;;;5093771;28;20043;-74
2021/01/26 04:10:39;;;;;;;1.42;0.30;;;3.40;91.20;;;;;;5093913;28;20040;-74
2021/01/26 04:13:12;;;;;;;1.23;0.47;;;3.40;91.10;;;;;;5093726;28;20475;-74
2021/01/26 04:15:45;;;;;;;1.75;0.47;;;3.50;91.10;;;;;;5091890;28;20068;-74
2021/01/26 04:18:13;;;;;;;2.63;0.50;;;3.40;91.00;;;;;;5060608;28;20067;-74
2021/01/26 04:20:41;;;;;;;1.77;0.40;;;3.50;91.00;;;;;;5093337;28;20044;-75
2021/01/26 04:23:07;;;;;;;1.02;0.32;;;3.50;91.00;;;;;;5093782;28;20086;-74
2021/01/26 04:25:40;;;;;;;0.85;0.40;;;3.50;91.00;;;;;;5093521;28;20040;-76
2021/01/26 04:28:10;;;;;;;0.75;0.40;;;3.60;91.10;;;;;;5058577;28;21408;-74
2021/01/26 04:30:36;;;;;;;1.83;0.60;;;3.50;91.00;;;;;;5058729;28;20035;-74
2021/01/26 04:33:05;;;;;;;2.97;0.50;;;3.50;91.00;;;;;;5093782;28;20549;-74
2021/01/26 04:35:32;;;;;;;2.40;0.57;;;3.60;91.00;;;;;;5092920;28;20032;-75
2021/01/26 04:37:58;;;;;;;1.55;0.43;;;3.60;91.00;;;;;;5058578;28;20036;-74
2021/01/26 04:40:25;;;;;;;0.90;0.38;;;3.70;90.90;;;;;;5093769;28;20048;-74
2021/01/26 04:42:59;;;;;;;0.30;0.30;;;3.70;90.90;;;;;;5093334;28;20043;-74
2021/01/26 04:45:45;;;;;;;1.00;0.20;;;3.70;90.90;;;;;;5093192;28;20089;-74
2021/01/26 04:48:20;;;;;;;1.55;0.60;;;3.80;90.90;;;;;;5071382;28;20048;-75
2021/01/26 04:50:54;;;;;;;3.10;0.65;;;3.80;90.90;;;;;;5093114;28;20501;-75
2021/01/26 04:53:48;;;;;;;1.65;0.57;;;3.90;90.90;;;;;;5093171;28;20051;-74
2021/01/26 04:56:39;;;;;;;0.98;0.40;;;3.90;90.80;;;;;;5092135;28;20067;-75
2021/01/26 04:59:26;;;;;;;3.83;0.50;;;3.90;90.80;;;;;;5092860;28;20056;-74
2021/01/26 05:02:19;;;;;;;2.35;0.50;;;3.90;90.80;;;;;;5092489;28;20040;-75
2021/01/26 05:04:52;;;;;;;2.72;0.50;;;3.90;91.10;;;;;;5058774;28;20083;-74
2021/01/26 05:07:23;;;;;;;2.58;0.50;;;3.80;90.80;;;;;;5092846;28;20047;-74
2021/01/26 05:10:10;;;;;;;0.57;0.35;;;3.80;90.80;;;;;;5058773;28;20037;-75
2021/01/26 05:12:44;;;;;;;0.30;0.20;;;3.80;90.90;;;;;;5092789;28;20522;-74
2021/01/26 05:15:18;;;;;;;1.10;0.38;;;3.80;90.90;;;;;;5092686;28;20376;-75
2021/01/26 05:17:51;;;;;;;1.13;0.47;;;3.80;91.00;;;;;;5092973;28;20040;-75
2021/01/26 05:20:24;;;;;;;2.15;0.50;;;3.70;90.90;;;;;;5093084;28;20099;-74
2021/01/26 05:22:54;;;;;;;2.38;0.40;;;3.80;91.00;;;;;;5092355;28;20458;-74
2021/01/26 05:25:23;;;;;;;1.92;0.45;;;3.80;91.00;;;;;;5093042;28;20122;-75
2021/01/26 05:27:50;;;;;;;1.13;0.30;;;3.70;91.00;;;;;;5092721;28;20086;-75
2021/01/26 05:30:26;;;;;;;2.13;0.60;;;3.70;91.10;;;;;;5058141;28;20134;-75
2021/01/26 05:32:53;;;;;;;0.95;0.50;;;3.70;91.10;;;;;;5092503;28;20085;-75
2021/01/26 05:35:20;;;;;;;2.30;0.65;;;3.80;91.10;;;;;;5092701;28;20095;-75
2021/01/26 05:37:50;;;;;;;3.30;0.57;;;3.80;91.10;;;;;;5064078;28;20033;-76
2021/01/26 05:40:29;;;;;;;0.90;0.35;;;3.80;91.10;;;;;;5059621;28;20036;-76
2021/01/26 05:43:00;;;;;;;1.42;0.40;;;3.70;91.10;;;;;;5094333;28;20140;-76
2021/01/26 05:45:42;;;;;;;1.50;0.43;;;3.70;91.10;;;;;;5094220;28;20044;-76
2021/01/26 05:48:13;;;;;;;1.35;0.50;;;3.70;91.00;;;;;;5094624;28;20057;-76
2021/01/26 05:50:42;;;;;;;2.38;0.30;;;3.80;91.10;;;;;;5093705;28;20028;-76
2021/01/26 05:53:17;;;;;;;2.58;0.43;;;3.80;91.10;;;;;;5059892;28;20044;-76
2021/01/26 05:55:56;;;;;;;0.47;0.30;;;3.80;91.10;;;;;;5093958;28;20036;-75
2021/01/26 05:58:27;;;;;;;2.45;0.50;;;3.90;91.10;;;;;;5062975;28;20089;-76
2021/01/26 06:01:06;;;;;;;1.67;0.57;;;3.90;91.10;;;;;;5094106;28;20123;-76
2021/01/26 06:03:32;;;;;;;0.45;0.20;;;3.90;91.00;;;;;;5090992;28;20437;-76
2021/01/26 06:06:02;;;;;;;2.72;0.40;;;3.90;91.00;;;;;;5092657;28;20118;-76
2021/01/26 06:08:28;;;;;;;1.42;0.40;;;3.90;91.00;;;;;;5092925;28;20426;-76
2021/01/26 06:10:57;;;;;;;1.63;0.40;;;3.90;91.00;;;;;;5058447;28;20033;-76
2021/01/26 06:13:26;;;;;;;1.50;0.50;;;3.90;91.00;;;;;;5092623;28;20048;-76
2021/01/26 06:16:08;;;;;;;1.20;0.30;;;3.90;91.00;;;;;;5067204;28;20424;-76
2021/01/26 06:18:34;;;;;;;0.43;0.20;;;3.90;91.10;;;;;;5073192;28;20480;-76
2021/01/26 06:21:06;;;;;;;0.95;0.35;;;3.90;91.10;;;;;;5093049;28;20036;-76
2021/01/26 06:23:35;;;;;;;1.45;0.25;;;3.90;91.10;;;;;;5060931;28;20068;-76
2021/01/26 06:26:07;;;;;;;0.60;0.20;;;3.90;91.20;;;;;;5092529;28;20078;-76
2021/01/26 06:28:59;;;;;;;2.30;0.17;;;3.90;91.20;;;;;;5090583;28;20430;-76
2021/01/26 06:31:42;;;;;;;;;;;3.90;91.20;;;;;;5091419;28;20032;-76
2021/01/26 06:34:25;;;;;;;0.30;0.10;;;3.90;91.10;;;;;;5089856;28;19912;-76
2021/01/26 06:37:12;;;;;;;0.95;0.30;;;3.90;91.10;;;;;;5090577;28;20402;-76
2021/01/26 06:39:58;;;;;;;0.30;0.20;;;3.90;91.10;;;;;;5090526;28;20489;-75
2021/01/26 06:42:48;;;;;;;1.10;0.30;;;3.80;91.20;;;;;;5092207;28;20044;-76
2021/01/26 06:45:54;;;;;;;0.57;0.20;;;3.80;91.20;;;;;;5091100;28;20040;-76
2021/01/26 06:48:40;;;;;;;0.75;0.30;;;3.90;91.20;;;;;;5091782;28;20044;-76
2021/01/26 06:51:35;;;;;;;0.20;0.20;;;3.90;91.20;;;;;;5042031;28;20036;-76
2021/01/26 06:54:34;;;;;;;0.50;0.10;;;3.90;91.20;;;;;;5092409;28;20052;-76
2021/01/26 06:57:26;;;;;;;0.70;0.10;;;3.90;91.20;;;;;;5091382;28;20046;-76
2021/01/26 07:00:08;;;;;;;1.15;0.30;;;3.90;91.20;;;;;;5095074;28;20043;-76
2021/01/26 07:03:05;;;;;;;0.70;0.38;;;3.90;91.20;;;;;;5094732;28;20040;-76
2021/01/26 07:05:54;;;;;;;0.52;0.25;;;3.90;91.20;;;;;;5047922;28;20606;-76
2021/01/26 07:08:52;;;;;;;0.52;0.30;;;3.90;91.20;;;;;;5094906;28;20046;-76
2021/01/26 07:11:55;;;;;;;0.10;0.10;;;4.00;91.30;;;;;;5095228;28;20119;-76
2021/01/26 07:14:55;;;;;;;0.30;0.10;;;3.90;91.20;;;;;;5060111;28;20051;-76
2021/01/26 07:17:45;;;;;;;2.13;0.40;;;4.00;91.30;;;;;;5094977;28;20047;-76
2021/01/26 07:20:36;;;;;;;2.13;0.57;;;4.00;91.30;;;;;;5093341;28;20484;-76
2021/01/26 07:23:16;;;;;;;0.85;0.20;;;3.90;91.30;;;;;;5094550;28;20036;-76
2021/01/26 07:26:04;;;;;;;1.08;0.20;;;3.90;91.20;;;;;;5095152;28;20044;-76
2021/01/26 07:28:58;;;;;;;0.25;0.17;;;3.90;91.30;;;;;;5059477;28;20040;-75
2021/01/26 07:31:37;;;;;;;1.35;0.30;;;3.90;91.30;;;;;;5072274;28;20041;-76
2021/01/26 07:34:16;;;;;;;0.28;0.20;;;3.90;91.30;;;;;;5060200;28;20503;-76
2021/01/26 07:36:50;;;;;;;1.75;0.30;;;4.00;91.30;;;;;;5095122;28;20047;-76
2021/01/26 07:39:40;;;;;;;0.60;0.30;;;3.90;91.20;;;;;;5094703;28;20123;-76
2021/01/26 07:42:15;;;;;;;1.25;0.20;;;3.90;91.20;;;;;;5095322;28;20123;-76
2021/01/26 07:45:06;;;;;;;0.40;0.30;;;3.90;91.30;;;;;;5094965;28;20039;-76
2021/01/26 07:47:38;;;;;;;1.17;0.50;;;3.90;91.30;;;;;;5065004;28;20046;-76
2021/01/26 07:50:10;;;;;;;0.47;0.22;;;3.90;91.30;;;;;;5094961;28;20415;-76
2021/01/26 07:52:40;;;;;;;0.10;0.10;;;3.90;91.30;;;;;;5095372;28;20391;-76
2021/01/26 07:55:39;;;;;;;0.28;0.17;;;4.00;91.30;;;;;;5060061;28;20084;-76
2021/01/26 07:58:09;;;;;;;1.02;0.50;;;4.00;91.30;;;;;;5075191;28;20089;-76
2021/01/26 08:00:40;;;;;;;0.50;0.30;;;4.00;91.30;;;;;;5094744;28;20042;-76
2021/01/26 08:03:05;;;;;;;0.40;0.22;;;4.00;91.30;;;;;;5072963;28;20443;-76
2021/01/26 08:05:49;;;;;;;0.20;0.20;;;4.10;91.30;;;;;;5059362;28;20036;-76
2021/01/26 08:08:22;;;;;;;0.13;0.13;;;4.10;91.20;;;;;;5092855;28;20089;-76
2021/01/26 08:11:21;;;;;;;0.20;0.20;;;4.10;91.20;;;;;;5058150;28;20047;-76
2021/01/26 08:14:03;;;;;;;2.25;0.30;;;4.20;91.30;;;;;;5094278;28;20097;-75
2021/01/26 08:16:36;;;;;;;0.32;0.20;;;3.90;91.20;;;;;;5094399;28;20071;-75
2021/01/26 08:19:16;;;;;;;0.55;0.20;;;3.90;91.30;;;;;;5058459;28;20036;-76
2021/01/26 08:21:44;;;;;;;0.28;0.20;;;3.90;91.40;;;;;;5093876;28;20040;-76
2021/01/26 08:24:17;;;;;;;0.80;0.32;;;3.90;91.40;;;;;;5091626;28;20075;-76
2021/01/26 08:26:43;;;;;;;0.43;0.20;;;3.90;91.40;;;;;;5059291;28;20089;-76
2021/01/26 08:29:10;;;;;;;0.63;0.28;;;3.90;91.40;;;;;;5059325;28;20067;-76
2021/01/26 08:31:38;;;;;;;0.35;0.30;;;3.90;91.40;;;;;;5094484;28;20032;-76
2021/01/26 08:34:38;;;;;;;0.47;0.25;;;3.90;91.40;;;;;;5094993;28;20036;-77
2021/01/26 08:37:24;;;;;;;0.22;0.20;;;3.90;91.50;;;;;;5057918;28;20041;-76
2021/01/26 08:39:50;;;;;;;0.32;0.30;;;4.00;91.50;;;;;;5096945;28;20039;-77
2021/01/26 08:42:51;;;;;;;0.50;0.30;;;4.00;91.40;;;;;;5098421;28;20051;-78
2021/01/26 08:45:39;;;;;;;0.30;0.20;;;4.10;91.40;;;;;;5096831;28;20130;-78
2021/01/26 08:48:22;;;;;;;0.82;0.38;;;4.10;91.30;;;;;;5067648;28;20044;-79
2021/01/26 08:51:34;;;;;;;0.85;0.50;;;4.30;91.20;;;;;;5063261;28;20507;-78
2021/01/26 08:54:01;;;;;;;0.30;0.30;;;4.20;91.10;;;;;;5068795;28;20040;-81
2021/01/26 08:56:49;;;;;;;0.55;0.30;;;4.30;91.20;;;;;;5097480;28;20487;-79
2021/01/26 08:59:29;;;;;;;3.10;0.30;;;4.40;91.50;;;;;;5029792;28;20501;-76
2021/01/26 09:01:55;;;;;;;0.45;0.30;;;4.40;91.20;;;;;;5058854;28;20057;-78
2021/01/26 09:04:39;;;;;;;0.38;0.30;;;4.50;91.10;;;;;;5062342;28;20043;-80
2021/01/26 09:07:06;;;;;;;0.63;0.20;;;4.50;91.10;;;;;;5064394;28;20049;-79
2021/01/26 09:09:49;;;;;;;0.20;0.20;;;4.50;91.00;;;;;;5046336;28;20048;-77
2021/01/26 09:12:21;;;;;;;1.15;0.35;;;4.50;91.00;;;;;;5093195;28;20036;-78
2021/01/26 09:14:50;;;;;;;;;;;4.70;91.00;;;;;;5094113;28;20044;-78
2021/01/26 09:17:33;;;;;;;0.30;0.30;;;4.60;91.00;;;;;;5059027;28;19958;-79
2021/01/26 09:20:15;;;;;;;0.80;0.45;;;4.80;90.90;;;;;;5096349;28;20044;-76
2021/01/26 09:22:40;;;;;;;;;;;4.70;90.80;;;;;;5041863;28;20043;-79
2021/01/26 09:25:19;;;;;;;1.42;0.30;;;4.80;90.80;;;;;;5056804;28;20075;-80
2021/01/26 09:27:57;;;;;;;0.60;0.40;;;4.80;90.80;;;;;;5057964;28;20063;-78
2021/01/26 09:30:28;;;;;;;0.52;0.30;;;4.80;90.80;;;;;;5060288;28;20048;-79
2021/01/26 09:33:22;;;;;;;1.20;0.30;;;4.90;90.80;;;;;;5067046;28;20052;-79
2021/01/26 09:35:53;;;;;;;2.13;0.57;;;4.90;90.80;;;;;;5056311;28;20045;-79
2021/01/26 09:38:27;;;;;;;0.50;0.30;;;5.00;90.80;;;;;;5093041;28;20040;-79
2021/01/26 09:40:57;;;;;;;0.75;0.30;;;5.00;90.80;;;;;;5040070;28;20139;-78
2021/01/26 09:43:27;;;;;;;0.20;0.20;;;5.00;90.80;;;;;;5041325;28;20056;-77
2021/01/26 09:46:00;;;;;;;1.95;0.30;;;5.00;90.80;;;;;;5041875;28;20056;-77
2021/01/26 09:48:33;;;;;;;3.83;0.50;;;5.10;90.80;;;;;;5058183;28;20391;-78
2021/01/26 09:51:10;;;;;;;0.88;0.45;;;5.10;90.80;;;;;;5072078;28;20510;-78
2021/01/26 09:53:38;;;;;;;1.50;0.40;;;5.10;90.70;;;;;;5075207;28;20047;-78
2021/01/26 09:56:06;;;;;;;1.27;0.40;;;5.10;90.70;;;;;;5058393;28;20046;-77
2021/01/26 09:58:32;;;;;;;1.17;0.50;;;5.20;90.70;;;;;;5092556;28;20040;-78
2021/01/26 10:00:59;;;;;;;1.20;0.30;;;5.20;90.70;;;;;;5070997;28;20040;-78
2021/01/26 10:03:26;;;;;;;0.20;0.20;;;5.20;90.70;;;;;;5092856;28;20051;-78
2021/01/26 10:05:55;;;;;;;1.20;0.40;;;5.20;90.80;;;;;;5092107;28;20492;-78
2021/01/26 10:08:29;;;;;;;0.93;0.43;;;5.40;90.80;;;;;;5090530;28;20035;-78
2021/01/26 10:10:55;;;;;;;1.30;0.30;;;5.30;90.80;;;;;;5088640;28;20032;-78
2021/01/26 10:13:38;;;;;;;1.88;0.22;;;5.50;90.80;;;;;;5058373;28;20059;-78
2021/01/26 10:16:31;;;;;;;1.25;0.38;;;5.40;90.80;;;;;;5057314;28;20085;-78
2021/01/26 10:19:12;;;;;;;0.50;0.30;;;5.40;90.70;;;;;;5058079;28;20048;-78
2021/01/26 10:21:38;;;;;;;1.08;0.40;;;5.50;90.70;;;;;;5056314;28;20045;-78
2021/01/26 10:24:11;;;;;;;0.80;0.40;;;5.50;90.60;;;;;;5057729;28;20107;-79
2021/01/26 10:26:39;;;;;;;0.43;0.30;;;5.50;90.60;;;;;;5041561;28;20079;-78
2021/01/26 10:29:31;;;;;;;0.45;0.30;;;5.50;90.60;;;;;;5042030;28;20077;-78
2021/01/26 10:31:59;;;;;;;0.20;0.20;;;5.60;90.60;;;;;;5070987;28;20471;-77
2021/01/26 10:34:51;;;;;;;0.57;0.30;;;5.70;90.90;;;;;;5096411;28;20122;-79
2021/01/26 10:37:30;;;;;;;;;;;5.60;90.60;;;;;;5049165;28;20621;-79
2021/01/26 10:40:16;;;;;;;0.50;0.28;;;5.70;90.60;;;;;;5063427;28;19931;-78
2021/01/26 10:43:04;;;;;;;1.05;0.30;;;5.70;90.50;;;;;;5096048;28;20048;-78
2021/01/26 10:45:53;;;;;;;0.30;0.25;;;5.70;90.50;;;;;;5046926;28;20072;-80
2021/01/26 10:48:27;;;;;;;0.65;0.30;;;5.80;90.40;;;;;;5032510;28;20127;-78
2021/01/26 10:51:07;;;;;;;1.08;0.32;;;5.90;90.40;;;;;;5016861;28;20061;-79
2021/01/26 10:53:36;;;;;;;0.20;0.17;;;5.90;90.40;;;;;;5020460;28;20144;-79
2021/01/26 10:56:02;;;;;;;0.13;0.10;;;6.00;90.30;;;;;;5000185;28;20041;-78
2021/01/26 10:58:28;;;;;;;1.25;0.30;;;6.10;90.30;;;;;;5016203;28;20041;-79
2021/01/26 11:00:54;;;;;;;0.45;0.20;;;6.10;90.30;;;;;;5030498;28;20076;-79
2021/01/26 11:03:23;;;;;;;0.75;0.20;;;6.10;90.20;;;;;;5023784;28;20053;-77
2021/01/26 11:06:09;;;;;;;0.20;0.20;;;6.20;90.20;;;;;;5004211;28;20045;-78
2021/01/26 11:08:35;;;;;;;0.63;0.20;;;6.20;90.20;;;;;;5005800;28;20038;-77
2021/01/26 11:11:01;;;;;;;0.45;0.20;;;6.30;90.10;;;;;;5001760;28;20081;-76
2021/01/26 11:13:28;;;;;;;0.68;0.30;;;6.30;90.10;;;;;;5080940;28;20048;-75
2021/01/26 11:15:56;;;;;;;1.60;0.40;;;6.30;90.10;;;;;;5095202;28;20115;-75
2021/01/26 11:18:22;;;;;;;0.47;0.32;;;6.30;90.10;;;;;;5094630;28;20040;-75
2021/01/26 11:20:47;;;;;;;0.40;0.40;;;6.30;90.10;;;;;;5077019;28;20047;-75
2021/01/26 11:23:14;;;;;;;0.43;0.35;;;6.30;90.10;;;;;;5094863;28;20514;-75
2021/01/26 11:25:40;;;;;;;1.23;0.50;;;6.30;90.30;;;;;;5076319;28;20501;-75
2021/01/26 11:28:06;;;;;;;0.73;0.50;;;6.30;90.10;;;;;;5094968;28;20032;-75
2021/01/26 11:30:32;;;;;;;0.25;0.25;;;6.30;90.10;;;;;;5076400;28;20048;-75
2021/01/26 11:33:05;;;;;;;1.08;0.50;;;6.20;90.10;;;;;;5059709;28;20456;-75
2021/01/26 11:35:32;;;;;;;0.35;0.35;;;6.40;90.10;;;;;;5094478;28;20068;-76
2021/01/26 11:37:58;;;;;;;1.10;0.50;;;6.30;90.10;;;;;;5074239;28;20036;-75
2021/01/26 11:40:25;;;;;;;1.92;0.40;;;6.30;90.10;;;;;;5094706;28;20241;-75
2021/01/26 11:42:51;;;;;;;1.65;0.50;;;6.40;90.10;;;;;;5072947;28;20044;-76
2021/01/26 11:45:21;;;;;;;2.42;0.30;;;6.30;90.10;;;;;;5093592;28;20043;-75
2021/01/26 11:47:46;;;;;;;0.75;0.30;;;6.40;90.10;;;;;;5094410;28;20043;-76
2021/01/26 11:50:15;;;;;;;0.32;0.32;;;6.50;90.10;;;;;;5042913;28;20433;-76
2021/01/26 11:52:41;;;;;;;2.45;0.50;;;6.50;90.10;;;;;;5094262;28;20124;-77
2021/01/26 11:55:11;;;;;;;0.40;0.40;;;6.50;90.10;;;;;;5059992;28;20036;-78
2021/01/26 11:57:37;;;;;;;1.92;0.60;;;6.60;90.00;;;;;;5094091;28;20040;-77
2021/01/26 12:00:07;;;;;;;1.10;0.55;;;6.70;90.00;;;;;;5094942;28;20138;-78
2021/01/26 12:02:32;;;;;;;1.30;0.57;;;6.70;90.00;;;;;;5096037;28;20117;-77
2021/01/26 12:04:58;;;;;;;0.43;0.30;;;6.70;90.20;;;;;;5062914;28;20102;-77
2021/01/26 12:07:24;;;;;;;0.45;0.32;;;6.70;89.80;;;;;;5094916;28;20036;-78
2021/01/26 12:09:49;;;;;;;0.98;0.40;;;6.70;89.80;;;;;;5095710;28;20050;-78
2021/01/26 12:12:15;;;;;;;0.80;0.30;;;6.80;90.10;;;;;;5060518;28;20054;-77
2021/01/26 12:14:41;;;;;;;1.65;0.60;;;6.70;89.80;;;;;;5064776;28;20048;-77
2021/01/26 12:17:06;;;;;;;0.80;0.40;;;6.70;89.80;;;;;;5117071;28;20024;-77
2021/01/26 12:19:32;;;;;;;0.60;0.40;;;6.70;89.70;;;;;;5080564;28;20070;-77
2021/01/26 12:22:00;;;;;;;2.50;0.65;;;6.70;89.80;;;;;;5113103;28;20025;-77
2021/01/26 12:24:26;;;;;;;4.00;0.90;;;6.70;89.80;;;;;;5047818;28;20080;-78
2021/01/26 12:26:53;;;;;;;0.90;0.50;;;6.70;89.60;;;;;;5107014;28;20094;-79
2021/01/26 12:29:18;;;;;;;0.30;0.30;;;6.80;89.50;;;;;;5047327;28;20049;-75
2021/01/26 12:31:44;;;;;;;2.50;0.60;;;6.70;89.60;;;;;;5051108;28;20120;-80
2021/01/26 12:34:10;;;;;;;3.30;0.60;;;6.90;89.60;;;;;;5032794;28;20049;-78
2021/01/26 12:36:36;;;;;;;1.13;0.43;;;6.80;89.10;;;;;;5032505;28;20089;-80
2021/01/26 12:39:02;;;;;;;2.15;0.63;;;6.90;89.00;;;;;;5030222;28;20045;-77
2021/01/26 12:41:28;;;;;;;1.73;0.60;;;6.90;88.90;;;;;;5053570;28;20053;-77
2021/01/26 12:43:53;;;;;;;2.65;0.50;;;6.90;89.00;;;;;;5054441;28;20052;-76
2021/01/26 12:46:19;;;;;;;1.40;0.63;;;7.00;88.90;;;;;;5038224;28;20080;-78
2021/01/26 12:48:45;;;;;;;1.40;0.80;;;7.00;89.00;;;;;;5049672;28;20084;-75
2021/01/26 12:51:10;;;;;;;1.17;0.68;;;7.10;88.80;;;;;;5053463;28;20041;-76
2021/01/26 12:53:36;;;;;;;3.20;0.70;;;7.00;88.90;;;;;;5035030;28;20072;-76
2021/01/26 12:56:02;;;;;;;1.50;0.70;;;7.00;88.70;;;;;;5037263;28;20108;-75
2021/01/26 12:58:28;;;;;;;1.00;0.63;;;6.80;88.80;;;;;;5045993;28;20077;-80
2021/01/26 13:00:53;;;;;;;1.20;0.70;;;6.80;89.10;;;;;;5057991;28;20041;-78
2021/01/26 13:03:19;;;;;;;2.33;0.80;;;6.70;89.20;;;;;;5107119;28;20047;-75
2021/01/26 13:05:48;;;;;;;2.28;0.77;;;6.60;89.30;;;;;;5110627;28;20067;-81
2021/01/26 13:08:15;;;;;;;1.88;0.70;;;6.50;89.40;;;;;;5070438;28;20492;-76
2021/01/26 13:10:40;;;;;;;1.55;0.55;;;6.50;89.70;;;;;;5106790;28;20040;-78
2021/01/26 13:13:06;;;;;;;1.45;0.50;;;6.60;89.70;;;;;;5049090;28;20047;-80
2021/01/26 13:15:32;;;;;;;0.98;0.50;;;6.50;89.60;;;;;;5060015;28;20048;-79
2021/01/26 13:17:58;;;;;;;0.30;0.30;;;6.50;89.60;;;;;;5096317;28;20040;-76
2021/01/26 13:20:24;;;;;;;0.93;0.32;;;6.50;90.10;;;;;;5110695;28;20040;-78
2021/01/26 13:22:50;;;;;;;0.98;0.40;;;6.50;89.70;;;;;;5109316;28;20115;-78
2021/01/26 13:25:21;;;;;;;0.75;0.52;;;6.50;89.70;;;;;;5108812;28;20036;-76
2021/01/26 13:27:47;;;;;;;1.03;0.20;;;6.50;89.80;;;;;;5109792;28;20119;-75
2021/01/26 13:30:16;;;;;;;0.73;0.40;;;6.60;89.70;;;;;;5110307;28;20290;-74
2021/01/26 13:32:42;;;;;;;1.50;0.40;;;6.60;89.40;;;;;;5102392;28;20043;-73